createdAt,value
2022-12-16T00:01:28.187Z,2.80
2022-12-16T00:04:00.161Z,2.80
2022-12-16T00:06:35.182Z,2.80
2022-12-16T00:09:03.491Z,2.90
2022-12-16T00:11:34.091Z,2.90
2022-12-16T00:14:07.600Z,2.80
2022-12-16T00:16:37.145Z,2.90
2022-12-16T00:19:07.517Z,2.90
2022-12-16T00:21:36.496Z,2.90
2022-12-16T00:24:04.767Z,2.90
2022-12-16T00:26:34.268Z,2.90
2022-12-16T00:29:05.341Z,2.90
2022-12-16T00:31:33.663Z,2.90
2022-12-16T00:34:04.179Z,3.00
2022-12-16T00:36:33.674Z,3.00
2022-12-16T00:39:04.069Z,3.00
2022-12-16T00:41:33.780Z,3.00
2022-12-16T00:44:01.969Z,3.00
2022-12-16T00:46:32.092Z,3.00
2022-12-16T00:49:01.430Z,3.00
2022-12-16T00:51:36.939Z,3.00
2022-12-16T00:54:06.358Z,3.10
2022-12-16T00:56:34.367Z,3.00
2022-12-16T00:59:02.843Z,3.10
2022-12-16T01:01:33.263Z,3.10
2022-12-16T01:04:01.778Z,3.10
2022-12-16T01:06:29.767Z,3.10
2022-12-16T01:08:59.093Z,3.10
2022-12-16T01:11:27.077Z,3.10
2022-12-16T01:13:56.253Z,3.10
2022-12-16T01:16:25.389Z,3.20
2022-12-16T01:18:58.867Z,3.20
2022-12-16T01:21:29.209Z,3.20
2022-12-16T01:23:59.984Z,3.20
2022-12-16T01:26:30.240Z,3.20
2022-12-16T01:29:00.585Z,3.20
2022-12-16T01:31:30.046Z,3.20
2022-12-16T01:33:58.236Z,3.20
2022-12-16T01:36:27.243Z,3.20
2022-12-16T01:38:57.672Z,3.20
2022-12-16T01:41:25.684Z,3.20
2022-12-16T01:43:55.987Z,3.30
2022-12-16T01:46:26.585Z,3.30
2022-12-16T01:49:06.572Z,3.30
2022-12-16T01:51:40.638Z,3.30
2022-12-16T01:54:18.819Z,3.30
2022-12-16T01:57:03.395Z,3.30
2022-12-16T01:59:35.273Z,3.30
2022-12-16T02:02:04.859Z,3.30
2022-12-16T02:04:33.026Z,3.30
2022-12-16T02:07:03.059Z,3.30
2022-12-16T02:09:36.496Z,3.30
2022-12-16T02:12:25.299Z,3.30
2022-12-16T02:15:15.179Z,3.30
2022-12-16T02:17:59.054Z,3.30
2022-12-16T02:21:24.314Z,3.30
2022-12-16T02:24:47.890Z,3.30
2022-12-16T02:28:04.248Z,3.30
2022-12-16T02:31:09.886Z,3.30
2022-12-16T02:34:01.622Z,3.30
2022-12-16T02:36:55.643Z,3.30
2022-12-16T02:39:31.416Z,3.30
2022-12-16T02:42:12.328Z,3.30
2022-12-16T02:44:55.964Z,3.30
2022-12-16T02:47:25.952Z,3.40
2022-12-16T02:49:57.402Z,3.40
2022-12-16T02:52:31.735Z,3.40
2022-12-16T02:55:08.988Z,3.40
2022-12-16T02:58:04.768Z,3.40
2022-12-16T03:00:48.184Z,3.40
2022-12-16T03:03:27.628Z,3.40
2022-12-16T03:06:02.239Z,3.40
2022-12-16T03:08:38.540Z,3.40
2022-12-16T03:11:08.874Z,3.40
2022-12-16T03:13:44.972Z,3.40
2022-12-16T03:16:19.625Z,3.40
2022-12-16T03:18:56.395Z,3.40
2022-12-16T03:21:41.683Z,3.40
2022-12-16T03:24:15.336Z,3.40
2022-12-16T03:26:56.722Z,3.40
2022-12-16T03:29:42.197Z,3.40
2022-12-16T03:32:23.637Z,3.40
2022-12-16T03:35:00.764Z,3.40
2022-12-16T03:37:37.814Z,3.40
2022-12-16T03:40:10.945Z,3.40
2022-12-16T03:42:40.509Z,3.40
2022-12-16T03:45:14.577Z,3.40
2022-12-16T03:47:42.609Z,3.40
2022-12-16T03:50:14.820Z,3.40
2022-12-16T03:52:42.811Z,3.40
2022-12-16T03:55:11.923Z,3.40
2022-12-16T03:57:39.907Z,3.40
2022-12-16T04:00:12.640Z,3.40
2022-12-16T04:02:41.556Z,3.40
2022-12-16T04:05:17.115Z,3.40
2022-12-16T04:07:46.430Z,3.40
2022-12-16T04:10:14.875Z,3.40
2022-12-16T04:13:00.719Z,3.40
2022-12-16T04:15:46.405Z,3.40
2022-12-16T04:18:39.787Z,3.40
2022-12-16T04:21:30.038Z,3.40
2022-12-16T04:24:16.804Z,3.40
2022-12-16T04:27:01.504Z,3.40
2022-12-16T04:29:29.495Z,3.40
2022-12-16T04:32:02.366Z,3.40
2022-12-16T04:34:31.125Z,3.40
2022-12-16T04:40:31.484Z,3.40
2022-12-16T04:43:17.036Z,3.30
2022-12-16T04:46:06.601Z,3.30
2022-12-16T04:48:52.312Z,3.30
2022-12-16T04:51:38.121Z,3.30
2022-12-16T04:54:28.889Z,3.30
2022-12-16T04:57:16.363Z,3.30
2022-12-16T05:00:10.217Z,3.30
2022-12-16T05:02:56.911Z,3.30
2022-12-16T05:05:42.493Z,3.30
2022-12-16T05:08:29.014Z,3.30
2022-12-16T05:11:19.431Z,3.30
2022-12-16T05:14:05.017Z,3.30
2022-12-16T05:16:53.956Z,3.30
2022-12-16T05:19:39.622Z,3.30
2022-12-16T05:22:28.413Z,3.30
2022-12-16T05:25:15.263Z,3.30
2022-12-16T05:28:11.196Z,3.30
2022-12-16T05:30:57.279Z,3.30
2022-12-16T05:33:46.984Z,3.30
2022-12-16T05:36:32.472Z,3.30
2022-12-16T05:39:18.074Z,3.30
2022-12-16T05:42:04.003Z,3.30
2022-12-16T05:44:55.742Z,3.30
2022-12-16T05:47:41.318Z,3.30
2022-12-16T05:50:27.622Z,3.30
2022-12-16T05:53:27.836Z,3.30
2022-12-16T05:56:16.514Z,3.30
2022-12-16T05:59:02.438Z,3.30
2022-12-16T06:01:51.515Z,3.30
2022-12-16T06:04:37.274Z,3.30
2022-12-16T06:07:22.832Z,3.30
2022-12-16T06:10:09.960Z,3.30
2022-12-16T06:12:55.759Z,3.30
2022-12-16T06:15:57.627Z,3.30
2022-12-16T06:18:47.849Z,3.30
2022-12-16T06:21:33.437Z,3.30
2022-12-16T06:24:20.853Z,3.30
2022-12-16T06:27:09.834Z,3.30
2022-12-16T06:29:58.078Z,3.30
2022-12-16T06:32:43.645Z,3.30
2022-12-16T06:35:32.554Z,3.30
2022-12-16T06:38:21.983Z,3.30
2022-12-16T06:41:03.922Z,3.30
2022-12-16T06:43:49.595Z,3.30
2022-12-16T06:46:57.533Z,3.30
2022-12-16T07:06:56.758Z,3.10
2022-12-16T07:09:43.324Z,3.10
2022-12-16T07:12:31.880Z,3.10
2022-12-16T07:15:17.851Z,3.10
2022-12-16T07:18:04.457Z,3.20
2022-12-16T07:20:58.377Z,3.20
2022-12-16T07:23:50.726Z,3.20
2022-12-16T07:26:37.549Z,3.20
2022-12-16T07:29:24.116Z,3.20
2022-12-16T07:32:11.901Z,3.20
2022-12-16T07:34:58.572Z,3.20
2022-12-16T07:37:50.465Z,3.20
2022-12-16T07:40:41.646Z,3.20
2022-12-16T07:43:28.612Z,3.20
2022-12-16T07:46:20.134Z,3.30
2022-12-16T07:49:05.680Z,3.30
2022-12-16T07:51:53.551Z,3.30
2022-12-16T07:54:44.776Z,3.30
2022-12-16T07:57:34.309Z,3.30
2022-12-16T08:00:19.926Z,3.30
2022-12-16T08:03:12.720Z,3.30
2022-12-16T08:05:58.564Z,3.30
2022-12-16T08:08:47.730Z,3.30
2022-12-16T08:11:33.377Z,3.30
2022-12-16T08:14:20.232Z,3.30
2022-12-16T08:17:08.130Z,3.30
2022-12-16T08:19:54.390Z,3.30
2022-12-16T08:22:43.393Z,3.30
2022-12-16T08:25:29.202Z,3.30
2022-12-16T08:28:21.843Z,3.30
2022-12-16T08:31:10.852Z,3.30
2022-12-16T08:33:59.320Z,3.30
2022-12-16T08:36:46.585Z,3.30
2022-12-16T08:39:33.674Z,3.40
2022-12-16T08:42:19.240Z,3.40
2022-12-16T08:45:08.503Z,3.40
2022-12-16T08:47:59.608Z,3.40
2022-12-16T08:50:50.405Z,3.40
2022-12-16T08:53:36.734Z,3.40
2022-12-16T08:56:24.592Z,3.50
2022-12-16T08:59:14.257Z,3.50
2022-12-16T09:01:59.957Z,3.50
2022-12-16T09:05:02.139Z,3.50
2022-12-16T09:07:49.093Z,3.50
2022-12-16T09:10:40.439Z,3.50
2022-12-16T09:13:32.745Z,3.50
2022-12-16T09:16:19.856Z,3.50
2022-12-16T09:19:06.608Z,3.50
2022-12-16T09:21:54.777Z,3.50
2022-12-16T09:24:42.946Z,3.50
2022-12-16T09:27:28.684Z,3.60
2022-12-16T09:30:14.356Z,3.60
2022-12-16T09:33:01.591Z,3.60
2022-12-16T09:35:50.731Z,3.60
2022-12-16T09:38:40.422Z,3.60
2022-12-16T09:41:55.592Z,3.60
2022-12-16T09:44:55.734Z,3.60
2022-12-16T09:48:00.622Z,3.60
2022-12-16T09:50:50.783Z,3.60
2022-12-16T09:57:59.618Z,3.50
2022-12-16T10:00:51.616Z,3.50
2022-12-16T10:03:43.459Z,3.50
2022-12-16T10:06:53.174Z,3.60
2022-12-16T10:09:56.199Z,3.50
2022-12-16T10:13:04.174Z,3.60
2022-12-16T10:16:09.826Z,3.60
2022-12-16T10:19:10.017Z,3.60
2022-12-16T10:22:07.014Z,3.60
2022-12-16T10:25:10.911Z,3.60
2022-12-16T10:36:43.658Z,3.60
2022-12-16T10:39:49.795Z,3.50
2022-12-16T10:42:45.014Z,3.60
2022-12-16T10:45:46.917Z,3.50
2022-12-16T10:48:36.721Z,3.60
2022-12-16T10:51:35.636Z,3.60
2022-12-16T10:54:59.461Z,3.60
2022-12-16T10:58:03.640Z,3.60
2022-12-16T11:01:06.016Z,3.60
2022-12-16T11:03:58.278Z,3.60
2022-12-16T11:06:55.206Z,3.50
2022-12-16T11:09:48.093Z,3.60
2022-12-16T11:12:41.718Z,3.60
2022-12-16T11:15:44.398Z,3.60
2022-12-16T11:18:33.999Z,3.60
2022-12-16T11:21:41.641Z,3.60
2022-12-16T11:24:35.295Z,3.60
2022-12-16T11:27:33.082Z,3.60
2022-12-16T11:30:24.137Z,3.60
2022-12-16T11:33:16.205Z,3.60
2022-12-16T11:36:10.662Z,3.60
2022-12-16T11:39:03.309Z,3.60
2022-12-16T11:41:56.771Z,3.70
2022-12-16T11:44:53.509Z,3.70
2022-12-16T11:47:55.297Z,3.70
2022-12-16T11:50:45.896Z,3.70
2022-12-16T11:53:49.360Z,3.70
2022-12-16T11:56:41.448Z,3.70
2022-12-16T11:59:40.377Z,3.70
2022-12-16T12:02:37.139Z,3.70
2022-12-16T12:05:25.407Z,3.70
2022-12-16T12:08:20.622Z,3.70
2022-12-16T12:11:25.962Z,3.70
2022-12-16T12:14:29.776Z,3.70
2022-12-16T12:17:34.552Z,3.70
2022-12-16T12:20:51.598Z,3.70
2022-12-16T12:23:55.897Z,3.70
2022-12-16T12:26:51.669Z,3.70
2022-12-16T12:29:52.060Z,3.70
2022-12-16T12:32:55.095Z,3.70
2022-12-16T12:36:11.401Z,3.70
2022-12-16T12:39:16.511Z,3.80
2022-12-16T12:42:20.762Z,3.70
2022-12-16T12:45:22.049Z,3.80
2022-12-16T12:48:18.925Z,3.80
2022-12-16T12:51:26.671Z,3.80
2022-12-16T12:54:40.104Z,3.80
2022-12-16T12:57:34.256Z,3.80
2022-12-16T13:00:35.767Z,3.80
2022-12-16T13:03:37.315Z,3.80
2022-12-16T13:06:25.604Z,3.90
2022-12-16T13:09:18.157Z,3.90
2022-12-16T13:12:57.159Z,3.80
2022-12-16T13:15:56.773Z,3.90
2022-12-16T13:18:52.220Z,3.90
2022-12-16T13:22:06.293Z,3.90
2022-12-16T13:25:07.677Z,3.90
2022-12-16T13:28:18.687Z,3.90
2022-12-16T13:31:26.944Z,3.90
2022-12-16T13:34:26.143Z,3.90
2022-12-16T13:37:25.724Z,4.00
2022-12-16T13:40:27.134Z,4.00
2022-12-16T13:43:13.821Z,3.90
2022-12-16T13:46:02.396Z,4.00
2022-12-16T13:48:59.487Z,4.00
2022-12-16T13:52:36.716Z,4.00
2022-12-16T13:55:33.946Z,4.00
2022-12-16T13:58:35.836Z,4.00
2022-12-16T14:01:32.769Z,4.00
2022-12-16T14:04:32.958Z,4.00
2022-12-16T14:07:24.861Z,4.00
2022-12-16T14:10:23.255Z,4.10
2022-12-16T14:13:21.826Z,4.10
2022-12-16T14:16:26.011Z,4.10
2022-12-16T14:19:40.327Z,4.10
2022-12-16T14:22:53.840Z,4.10
2022-12-16T14:25:42.771Z,4.10
2022-12-16T14:28:45.427Z,4.10
2022-12-16T14:31:37.261Z,4.10
2022-12-16T14:34:23.763Z,4.10
2022-12-16T14:37:10.609Z,4.10
2022-12-16T14:39:59.112Z,4.10
2022-12-16T14:42:57.653Z,4.10
2022-12-16T14:45:51.447Z,4.20
2022-12-16T14:48:55.594Z,4.10
2022-12-16T14:51:48.184Z,4.20
2022-12-16T14:54:46.975Z,4.10
2022-12-16T14:57:36.328Z,4.10
2022-12-16T15:00:37.788Z,4.10
2022-12-16T15:03:35.236Z,4.20
2022-12-16T15:06:26.193Z,4.20
2022-12-16T15:12:20.526Z,4.20
2022-12-16T15:15:09.157Z,4.20
2022-12-16T15:18:09.779Z,4.20
2022-12-16T15:21:06.635Z,4.20
2022-12-16T15:24:09.124Z,4.20
2022-12-16T15:26:55.402Z,4.20
2022-12-16T15:30:07.544Z,4.10
2022-12-16T15:32:54.594Z,4.20
2022-12-16T15:35:53.460Z,4.20
2022-12-16T15:38:48.201Z,4.20
2022-12-16T15:41:50.446Z,4.20
2022-12-16T15:44:39.520Z,4.20
2022-12-16T15:47:38.965Z,4.20
2022-12-16T15:50:40.094Z,4.10
2022-12-16T15:53:49.206Z,4.10
2022-12-16T15:56:49.022Z,4.20
2022-12-16T15:59:43.737Z,4.20
2022-12-16T16:02:44.262Z,4.20
2022-12-16T16:05:37.111Z,4.20
2022-12-16T16:08:26.361Z,4.20
2022-12-16T16:12:13.875Z,4.10
2022-12-16T16:15:04.205Z,4.10
2022-12-16T16:17:49.883Z,4.10
2022-12-16T16:20:39.452Z,4.10
2022-12-16T16:23:21.557Z,4.10
2022-12-16T16:26:08.120Z,4.10
2022-12-16T16:28:54.262Z,4.20
2022-12-16T16:31:43.962Z,4.10
2022-12-16T16:34:31.350Z,4.10
2022-12-16T16:37:18.220Z,4.20
2022-12-16T16:40:04.757Z,4.20
2022-12-16T16:42:50.435Z,4.10
2022-12-16T16:45:37.463Z,4.20
2022-12-16T16:48:32.257Z,4.10
2022-12-16T16:51:19.568Z,4.20
2022-12-16T16:54:05.665Z,4.10
2022-12-16T16:56:55.759Z,4.10
2022-12-16T16:59:45.450Z,4.10
2022-12-16T17:02:43.791Z,4.10
2022-12-16T17:05:31.554Z,4.10
2022-12-16T17:08:17.355Z,4.10
2022-12-16T17:11:06.021Z,4.10
2022-12-16T17:13:57.012Z,4.10
2022-12-16T17:16:43.752Z,4.10
2022-12-16T17:19:29.328Z,4.20
2022-12-16T17:22:15.166Z,4.20
2022-12-16T17:25:06.577Z,4.20
2022-12-16T17:27:55.461Z,4.20
2022-12-16T17:30:46.827Z,4.20
2022-12-16T17:33:35.474Z,4.20
2022-12-16T17:36:30.011Z,4.10
2022-12-16T17:39:23.821Z,4.10
2022-12-16T17:42:10.139Z,4.20
2022-12-16T17:44:55.732Z,4.10
2022-12-16T17:47:42.124Z,4.20
2022-12-16T17:50:30.948Z,4.10
2022-12-16T17:53:17.875Z,4.20
2022-12-16T17:56:06.770Z,4.20
2022-12-16T17:58:59.337Z,4.10
2022-12-16T18:01:45.203Z,4.20
2022-12-16T18:04:31.262Z,4.20
2022-12-16T18:07:16.788Z,4.20
2022-12-16T18:10:02.282Z,4.20
2022-12-16T18:12:51.533Z,4.10
2022-12-16T18:15:37.371Z,4.20
2022-12-16T18:18:26.324Z,4.20
2022-12-16T18:21:12.255Z,4.20
2022-12-16T18:23:59.974Z,4.20
2022-12-16T18:26:45.932Z,4.20
2022-12-16T18:29:34.861Z,4.20
2022-12-16T18:32:20.737Z,4.20
2022-12-16T18:35:06.203Z,4.20
2022-12-16T18:37:51.820Z,4.20
2022-12-16T18:40:39.143Z,4.20
2022-12-16T18:43:30.190Z,4.10
2022-12-16T18:46:17.297Z,4.20
2022-12-16T18:49:15.731Z,4.20
2022-12-16T18:52:01.386Z,4.20
2022-12-16T18:54:46.998Z,4.20
2022-12-16T18:57:39.845Z,4.20
2022-12-16T19:00:27.683Z,4.20
2022-12-16T19:03:15.050Z,4.20
2022-12-16T19:06:01.073Z,4.20
2022-12-16T19:08:49.624Z,4.20
2022-12-16T19:14:36.326Z,4.20
2022-12-16T19:17:27.163Z,4.20
2022-12-16T19:20:33.009Z,4.20
2022-12-16T19:23:20.909Z,4.20
2022-12-16T19:26:11.034Z,4.20
2022-12-16T19:29:01.802Z,4.20
2022-12-16T19:31:49.623Z,4.10
2022-12-16T19:34:36.808Z,4.20
2022-12-16T19:37:26.335Z,4.20
2022-12-16T19:40:11.869Z,4.20
2022-12-16T19:45:59.984Z,4.20
2022-12-16T19:48:52.465Z,4.20
2022-12-16T19:51:42.618Z,4.20
2022-12-16T19:54:31.556Z,4.20
2022-12-16T19:57:17.214Z,4.20
2022-12-16T20:00:03.196Z,4.20
2022-12-16T20:02:57.758Z,4.20
2022-12-16T20:05:43.773Z,4.20
2022-12-16T20:08:32.616Z,4.20
2022-12-16T20:11:34.032Z,4.20
2022-12-16T20:14:21.148Z,4.20
2022-12-16T20:17:12.230Z,4.20
2022-12-16T20:20:00.179Z,4.20
2022-12-16T20:22:48.815Z,4.20
2022-12-16T20:25:36.843Z,4.20
2022-12-16T20:28:25.860Z,4.20
2022-12-16T20:31:11.745Z,4.20
2022-12-16T20:34:02.892Z,4.20
2022-12-16T20:36:56.535Z,4.20
2022-12-16T20:39:42.301Z,4.20
2022-12-16T20:42:28.320Z,4.20
2022-12-16T20:45:16.484Z,4.20
2022-12-16T20:48:02.188Z,4.20
2022-12-16T20:50:47.721Z,4.20
2022-12-16T20:53:37.900Z,4.20
2022-12-16T20:56:24.404Z,4.20
2022-12-16T20:59:13.203Z,4.20
2022-12-16T21:02:22.697Z,4.20
2022-12-16T21:05:07.070Z,4.20
2022-12-16T21:07:57.170Z,4.20
2022-12-16T21:10:42.964Z,4.20
2022-12-16T21:16:46.395Z,4.20
2022-12-16T21:19:36.522Z,4.20
2022-12-16T21:22:26.980Z,4.20
2022-12-16T21:25:19.745Z,4.20
2022-12-16T21:28:09.742Z,4.20
2022-12-16T21:30:59.662Z,4.30
2022-12-16T21:33:46.188Z,4.30
2022-12-16T21:36:33.806Z,4.30
2022-12-16T21:39:19.547Z,4.30
2022-12-16T21:42:07.291Z,4.30
2022-12-16T21:45:02.768Z,4.30
2022-12-16T21:47:51.527Z,4.30
2022-12-16T21:50:38.394Z,4.20
2022-12-16T21:53:31.952Z,4.30
2022-12-16T21:56:18.001Z,4.30
2022-12-16T21:59:03.690Z,4.30
2022-12-16T22:01:51.336Z,4.30
2022-12-16T22:04:39.425Z,4.30
2022-12-16T22:07:25.049Z,4.30
2022-12-16T22:10:12.169Z,4.30
2022-12-16T22:12:58.886Z,4.30
2022-12-16T22:15:46.792Z,4.30
2022-12-16T22:18:38.846Z,4.30
2022-12-16T22:21:30.588Z,4.30
2022-12-16T22:24:16.881Z,4.30
2022-12-16T22:27:05.308Z,4.30
2022-12-16T22:29:52.854Z,4.30
2022-12-16T22:32:42.483Z,4.30
2022-12-16T22:35:27.910Z,4.30
2022-12-16T22:38:14.106Z,4.40
2022-12-16T22:40:59.776Z,4.30
2022-12-16T22:43:52.321Z,4.30
2022-12-16T22:46:38.934Z,4.40
2022-12-16T22:49:27.739Z,4.40
2022-12-16T22:52:13.335Z,4.40
2022-12-16T22:54:58.928Z,4.40
2022-12-16T22:57:50.878Z,4.40
2022-12-16T23:00:40.268Z,4.40
2022-12-16T23:03:35.440Z,4.30
2022-12-16T23:06:21.641Z,4.40
2022-12-16T23:09:07.226Z,4.40
2022-12-16T23:11:58.892Z,4.40
2022-12-16T23:14:44.429Z,4.40
2022-12-16T23:17:32.585Z,4.40
2022-12-16T23:20:18.126Z,4.40
2022-12-16T23:23:06.658Z,4.40
2022-12-16T23:25:53.927Z,4.40
2022-12-16T23:28:39.786Z,4.40
2022-12-16T23:31:25.444Z,4.40
2022-12-16T23:34:15.196Z,4.40
2022-12-16T23:37:00.766Z,4.40
2022-12-16T23:39:46.317Z,4.40
2022-12-16T23:42:33.884Z,4.40
2022-12-16T23:45:22.929Z,4.40
2022-12-16T23:48:20.320Z,4.40
2022-12-16T23:51:09.832Z,4.40
2022-12-16T23:53:58.147Z,4.40
2022-12-16T23:56:44.496Z,4.40
2022-12-16T23:59:39.466Z,4.50
